sensor_id;sensor_type;location;lat;lon;timestamp;temperature;humidity
20398;DHT22;10358;49.590;11.030;2023-02-22T00:01:27;3.80;99.90
20398;DHT22;10358;49.590;11.030;2023-02-22T00:04:00;3.90;99.90
20398;DHT22;10358;49.590;11.030;2023-02-22T00:06:26;3.90;99.90
20398;DHT22;10358;49.590;11.030;2023-02-22T00:08:51;3.90;99.90
20398;DHT22;10358;49.590;11.030;2023-02-22T00:11:18;4.00;99.90
20398;DHT22;10358;49.590;11.030;2023-02-22T00:13:44;3.90;99.90
20398;DHT22;10358;49.590;11.030;2023-02-22T00:16:19;3.80;99.90
20398;DHT22;10358;49.590;11.030;2023-02-22T00:18:45;3.80;99.90
20398;DHT22;10358;49.590;11.030;2023-02-22T00:21:12;3.80;99.90
20398;DHT22;10358;49.590;11.030;2023-02-22T00:23:45;3.70;99.90
20398;DHT22;10358;49.590;11.030;2023-02-22T00:26:12;3.70;99.90
20398;DHT22;10358;49.590;11.030;2023-02-22T00:28:43;3.60;99.90
20398;DHT22;10358;49.590;11.030;2023-02-22T00:31:08;3.60;99.90
20398;DHT22;10358;49.590;11.030;2023-02-22T00:33:34;3.60;99.90
20398;DHT22;10358;49.590;11.030;2023-02-22T00:36:01;3.50;99.90
20398;DHT22;10358;49.590;11.030;2023-02-22T00:38:26;3.40;99.90
20398;DHT22;10358;49.590;11.030;2023-02-22T00:40:52;3.40;99.90
20398;DHT22;10358;49.590;11.030;2023-02-22T00:43:17;3.40;99.90
20398;DHT22;10358;49.590;11.030;2023-02-22T00:45:43;3.40;99.90
20398;DHT22;10358;49.590;11.030;2023-02-22T00:48:09;3.30;99.90
20398;DHT22;10358;49.590;11.030;2023-02-22T00:50:35;3.30;99.90
20398;DHT22;10358;49.590;11.030;2023-02-22T00:53:02;3.30;99.90
20398;DHT22;10358;49.590;11.030;2023-02-22T00:55:31;3.30;99.90
20398;DHT22;10358;49.590;11.030;2023-02-22T00:57:57;3.20;99.90
20398;DHT22;10358;49.590;11.030;2023-02-22T01:00:26;3.20;99.90
20398;DHT22;10358;49.590;11.030;2023-02-22T01:02:53;3.10;99.90
20398;DHT22;10358;49.590;11.030;2023-02-22T01:05:24;3.30;99.90
20398;DHT22;10358;49.590;11.030;2023-02-22T01:07:50;3.00;99.90
20398;DHT22;10358;49.590;11.030;2023-02-22T01:10:18;3.00;99.90
20398;DHT22;10358;49.590;11.030;2023-02-22T01:12:45;3.10;99.90
20398;DHT22;10358;49.590;11.030;2023-02-22T01:15:11;3.10;99.90
20398;DHT22;10358;49.590;11.030;2023-02-22T01:17:38;3.00;99.90
20398;DHT22;10358;49.590;11.030;2023-02-22T01:20:05;3.00;99.90
20398;DHT22;10358;49.590;11.030;2023-02-22T01:22:35;3.00;99.90
20398;DHT22;10358;49.590;11.030;2023-02-22T01:25:02;3.10;99.90
20398;DHT22;10358;49.590;11.030;2023-02-22T01:27:28;3.10;99.90
20398;DHT22;10358;49.590;11.030;2023-02-22T01:29:54;3.10;99.90
20398;DHT22;10358;49.590;11.030;2023-02-22T01:32:19;3.00;99.90
20398;DHT22;10358;49.590;11.030;2023-02-22T01:34:45;3.00;99.90
20398;DHT22;10358;49.590;11.030;2023-02-22T01:37:10;3.00;99.90
20398;DHT22;10358;49.590;11.030;2023-02-22T01:39:36;3.00;99.90
20398;DHT22;10358;49.590;11.030;2023-02-22T01:42:02;2.90;99.90
20398;DHT22;10358;49.590;11.030;2023-02-22T01:44:36;2.90;99.90
20398;DHT22;10358;49.590;11.030;2023-02-22T01:47:04;2.90;99.90
20398;DHT22;10358;49.590;11.030;2023-02-22T01:49:43;2.90;99.90
20398;DHT22;10358;49.590;11.030;2023-02-22T01:52:14;2.80;99.90
20398;DHT22;10358;49.590;11.030;2023-02-22T01:54:46;2.80;99.90
20398;DHT22;10358;49.590;11.030;2023-02-22T01:57:32;2.80;99.90
20398;DHT22;10358;49.590;11.030;2023-02-22T02:00:04;2.80;99.90
20398;DHT22;10358;49.590;11.030;2023-02-22T02:02:41;2.80;99.90
20398;DHT22;10358;49.590;11.030;2023-02-22T02:05:08;2.80;99.90
20398;DHT22;10358;49.590;11.030;2023-02-22T02:07:35;2.70;99.90
20398;DHT22;10358;49.590;11.030;2023-02-22T02:10:08;2.70;99.90
20398;DHT22;10358;49.590;11.030;2023-02-22T02:12:43;2.70;99.90
20398;DHT22;10358;49.590;11.030;2023-02-22T02:15:28;2.80;99.90
20398;DHT22;10358;49.590;11.030;2023-02-22T02:17:57;2.80;99.90
20398;DHT22;10358;49.590;11.030;2023-02-22T02:27:00;2.60;99.90
20398;DHT22;10358;49.590;11.030;2023-02-22T02:29:39;2.50;99.90
20398;DHT22;10358;49.590;11.030;2023-02-22T02:37:36;2.40;99.90
20398;DHT22;10358;49.590;11.030;2023-02-22T02:43:13;2.30;99.90
20398;DHT22;10358;49.590;11.030;2023-02-22T02:46:16;2.40;99.90
20398;DHT22;10358;49.590;11.030;2023-02-22T02:48:48;2.60;99.90
20398;DHT22;10358;49.590;11.030;2023-02-22T02:51:20;2.40;99.90
20398;DHT22;10358;49.590;11.030;2023-02-22T02:53:47;2.40;99.90
20398;DHT22;10358;49.590;11.030;2023-02-22T02:56:15;2.30;99.90
20398;DHT22;10358;49.590;11.030;2023-02-22T02:58:45;2.30;99.90
20398;DHT22;10358;49.590;11.030;2023-02-22T03:04:26;2.20;99.90
20398;DHT22;10358;49.590;11.030;2023-02-22T03:07:40;2.10;99.90
20398;DHT22;10358;49.590;11.030;2023-02-22T03:15:31;2.00;99.90
20398;DHT22;10358;49.590;11.030;2023-02-22T03:18:12;2.00;99.90
20398;DHT22;10358;49.590;11.030;2023-02-22T03:20:58;2.00;99.90
20398;DHT22;10358;49.590;11.030;2023-02-22T03:23:39;2.10;99.90
20398;DHT22;10358;49.590;11.030;2023-02-22T03:26:15;2.20;99.90
20398;DHT22;10358;49.590;11.030;2023-02-22T03:28:45;2.20;99.90
20398;DHT22;10358;49.590;11.030;2023-02-22T03:31:17;2.20;99.90
20398;DHT22;10358;49.590;11.030;2023-02-22T03:33:53;2.20;99.90
20398;DHT22;10358;49.590;11.030;2023-02-22T03:36:24;2.20;99.90
20398;DHT22;10358;49.590;11.030;2023-02-22T03:38:52;2.20;99.90
20398;DHT22;10358;49.590;11.030;2023-02-22T03:41:22;2.10;99.90
20398;DHT22;10358;49.590;11.030;2023-02-22T03:43:57;2.10;99.90
20398;DHT22;10358;49.590;11.030;2023-02-22T03:46:26;2.00;99.90
20398;DHT22;10358;49.590;11.030;2023-02-22T03:49:19;2.00;99.90
20398;DHT22;10358;49.590;11.030;2023-02-22T03:51:47;2.00;99.90
20398;DHT22;10358;49.590;11.030;2023-02-22T03:54:14;2.00;99.90
20398;DHT22;10358;49.590;11.030;2023-02-22T03:56:55;2.00;99.90
20398;DHT22;10358;49.590;11.030;2023-02-22T03:59:22;2.00;99.90
20398;DHT22;10358;49.590;11.030;2023-02-22T04:01:54;2.00;99.90
20398;DHT22;10358;49.590;11.030;2023-02-22T04:04:21;1.90;99.90
20398;DHT22;10358;49.590;11.030;2023-02-22T04:06:48;1.80;99.90
20398;DHT22;10358;49.590;11.030;2023-02-22T04:09:15;1.80;99.90
20398;DHT22;10358;49.590;11.030;2023-02-22T04:11:40;1.80;99.90
20398;DHT22;10358;49.590;11.030;2023-02-22T04:14:06;1.80;99.90
20398;DHT22;10358;49.590;11.030;2023-02-22T04:16:32;1.80;99.90
20398;DHT22;10358;49.590;11.030;2023-02-22T04:18:57;1.80;99.90
20398;DHT22;10358;49.590;11.030;2023-02-22T04:21:23;1.70;99.90
20398;DHT22;10358;49.590;11.030;2023-02-22T04:23:49;1.70;99.90
20398;DHT22;10358;49.590;11.030;2023-02-22T04:26:15;1.70;99.90
20398;DHT22;10358;49.590;11.030;2023-02-22T04:28:40;1.70;99.90
20398;DHT22;10358;49.590;11.030;2023-02-22T04:31:06;1.70;99.90
20398;DHT22;10358;49.590;11.030;2023-02-22T04:33:31;1.70;99.90
20398;DHT22;10358;49.590;11.030;2023-02-22T04:35:57;1.70;99.90
20398;DHT22;10358;49.590;11.030;2023-02-22T04:38:24;1.70;99.90
20398;DHT22;10358;49.590;11.030;2023-02-22T04:40:53;1.70;99.90
20398;DHT22;10358;49.590;11.030;2023-02-22T04:43:20;1.70;99.90
20398;DHT22;10358;49.590;11.030;2023-02-22T04:45:46;1.60;99.90
20398;DHT22;10358;49.590;11.030;2023-02-22T04:48:11;1.60;99.90
20398;DHT22;10358;49.590;11.030;2023-02-22T04:50:37;1.60;99.90
20398;DHT22;10358;49.590;11.030;2023-02-22T04:53:03;1.60;99.90
20398;DHT22;10358;49.590;11.030;2023-02-22T04:55:29;1.60;99.90
20398;DHT22;10358;49.590;11.030;2023-02-22T04:57:55;1.60;99.90
20398;DHT22;10358;49.590;11.030;2023-02-22T05:00:21;1.60;99.90
20398;DHT22;10358;49.590;11.030;2023-02-22T05:02:47;1.60;99.90
20398;DHT22;10358;49.590;11.030;2023-02-22T05:05:15;1.60;99.90
20398;DHT22;10358;49.590;11.030;2023-02-22T05:07:41;1.50;99.90
20398;DHT22;10358;49.590;11.030;2023-02-22T05:10:07;1.50;99.90
20398;DHT22;10358;49.590;11.030;2023-02-22T05:12:34;1.50;99.90
20398;DHT22;10358;49.590;11.030;2023-02-22T05:15:00;1.50;99.90
20398;DHT22;10358;49.590;11.030;2023-02-22T05:17:26;1.50;99.90
20398;DHT22;10358;49.590;11.030;2023-02-22T05:19:52;1.40;99.90
20398;DHT22;10358;49.590;11.030;2023-02-22T05:22:17;1.40;99.90
20398;DHT22;10358;49.590;11.030;2023-02-22T05:24:43;1.30;99.90
20398;DHT22;10358;49.590;11.030;2023-02-22T05:27:09;1.30;99.90
20398;DHT22;10358;49.590;11.030;2023-02-22T05:29:34;1.30;99.90
20398;DHT22;10358;49.590;11.030;2023-02-22T05:32:03;1.40;99.90
20398;DHT22;10358;49.590;11.030;2023-02-22T05:34:29;1.40;99.90
20398;DHT22;10358;49.590;11.030;2023-02-22T05:36:55;1.40;99.90
20398;DHT22;10358;49.590;11.030;2023-02-22T05:39:20;1.50;99.90
20398;DHT22;10358;49.590;11.030;2023-02-22T05:41:46;1.50;99.90
20398;DHT22;10358;49.590;11.030;2023-02-22T05:44:12;1.50;99.90
20398;DHT22;10358;49.590;11.030;2023-02-22T05:46:37;1.50;99.90
20398;DHT22;10358;49.590;11.030;2023-02-22T05:49:03;1.50;99.90
20398;DHT22;10358;49.590;11.030;2023-02-22T05:51:29;1.40;99.90
20398;DHT22;10358;49.590;11.030;2023-02-22T05:53:54;1.40;99.90
20398;DHT22;10358;49.590;11.030;2023-02-22T05:56:25;1.40;99.90
20398;DHT22;10358;49.590;11.030;2023-02-22T05:58:51;1.40;99.90
20398;DHT22;10358;49.590;11.030;2023-02-22T06:01:16;1.40;99.90
20398;DHT22;10358;49.590;11.030;2023-02-22T06:03:45;1.40;99.90
20398;DHT22;10358;49.590;11.030;2023-02-22T06:06:10;1.30;99.90
20398;DHT22;10358;49.590;11.030;2023-02-22T06:08:36;1.40;99.90
20398;DHT22;10358;49.590;11.030;2023-02-22T06:11:02;1.40;99.90
20398;DHT22;10358;49.590;11.030;2023-02-22T06:13:27;1.40;99.90
20398;DHT22;10358;49.590;11.030;2023-02-22T06:15:53;1.40;99.90
20398;DHT22;10358;49.590;11.030;2023-02-22T06:18:18;1.50;99.90
20398;DHT22;10358;49.590;11.030;2023-02-22T06:20:44;1.50;99.90
20398;DHT22;10358;49.590;11.030;2023-02-22T06:23:09;1.50;99.90
20398;DHT22;10358;49.590;11.030;2023-02-22T06:25:35;1.60;99.90
20398;DHT22;10358;49.590;11.030;2023-02-22T06:28:01;1.60;99.90
20398;DHT22;10358;49.590;11.030;2023-02-22T06:30:27;1.60;99.90
20398;DHT22;10358;49.590;11.030;2023-02-22T06:32:53;1.70;99.90
20398;DHT22;10358;49.590;11.030;2023-02-22T06:35:19;1.70;99.90
20398;DHT22;10358;49.590;11.030;2023-02-22T06:37:46;1.80;99.90
20398;DHT22;10358;49.590;11.030;2023-02-22T06:40:12;1.80;99.90
20398;DHT22;10358;49.590;11.030;2023-02-22T06:42:38;1.80;99.90
20398;DHT22;10358;49.590;11.030;2023-02-22T06:45:04;1.80;99.90
20398;DHT22;10358;49.590;11.030;2023-02-22T06:47:29;1.90;99.90
20398;DHT22;10358;49.590;11.030;2023-02-22T06:49:56;1.90;99.90
20398;DHT22;10358;49.590;11.030;2023-02-22T06:52:23;1.80;99.90
20398;DHT22;10358;49.590;11.030;2023-02-22T06:54:49;1.90;99.90
20398;DHT22;10358;49.590;11.030;2023-02-22T06:57:15;2.00;99.90
20398;DHT22;10358;49.590;11.030;2023-02-22T06:59:40;2.10;99.90
20398;DHT22;10358;49.590;11.030;2023-02-22T07:02:06;2.10;99.90
20398;DHT22;10358;49.590;11.030;2023-02-22T07:04:31;2.20;99.90
20398;DHT22;10358;49.590;11.030;2023-02-22T07:06:57;2.20;99.90
20398;DHT22;10358;49.590;11.030;2023-02-22T07:09:22;2.10;99.90
20398;DHT22;10358;49.590;11.030;2023-02-22T07:11:48;2.10;99.90
20398;DHT22;10358;49.590;11.030;2023-02-22T07:14:16;2.10;99.90
20398;DHT22;10358;49.590;11.030;2023-02-22T07:16:41;2.20;99.90
20398;DHT22;10358;49.590;11.030;2023-02-22T07:19:07;2.20;99.90
20398;DHT22;10358;49.590;11.030;2023-02-22T07:21:32;2.30;99.90
20398;DHT22;10358;49.590;11.030;2023-02-22T07:23:58;2.30;99.90
20398;DHT22;10358;49.590;11.030;2023-02-22T07:26:25;2.30;99.90
20398;DHT22;10358;49.590;11.030;2023-02-22T07:28:50;2.40;99.90
20398;DHT22;10358;49.590;11.030;2023-02-22T07:31:16;2.40;99.90
20398;DHT22;10358;49.590;11.030;2023-02-22T07:33:44;2.50;99.90
20398;DHT22;10358;49.590;11.030;2023-02-22T07:36:10;2.60;99.90
20398;DHT22;10358;49.590;11.030;2023-02-22T07:38:37;2.60;99.90
20398;DHT22;10358;49.590;11.030;2023-02-22T07:41:03;2.70;99.90
20398;DHT22;10358;49.590;11.030;2023-02-22T07:43:29;2.80;99.90
20398;DHT22;10358;49.590;11.030;2023-02-22T07:45:57;2.90;99.90
20398;DHT22;10358;49.590;11.030;2023-02-22T07:48:26;3.00;99.90
20398;DHT22;10358;49.590;11.030;2023-02-22T07:50:51;3.00;99.90
20398;DHT22;10358;49.590;11.030;2023-02-22T07:53:36;3.00;99.90
20398;DHT22;10358;49.590;11.030;2023-02-22T07:56:04;3.10;99.90
20398;DHT22;10358;49.590;11.030;2023-02-22T07:58:31;3.30;99.90
20398;DHT22;10358;49.590;11.030;2023-02-22T08:00:57;3.40;99.90
20398;DHT22;10358;49.590;11.030;2023-02-22T08:03:24;3.50;99.90
20398;DHT22;10358;49.590;11.030;2023-02-22T08:05:55;3.60;99.90
20398;DHT22;10358;49.590;11.030;2023-02-22T08:08:21;3.70;99.90
20398;DHT22;10358;49.590;11.030;2023-02-22T08:10:47;3.80;99.90
20398;DHT22;10358;49.590;11.030;2023-02-22T08:13:14;3.90;99.90
20398;DHT22;10358;49.590;11.030;2023-02-22T08:15:40;4.10;99.90
20398;DHT22;10358;49.590;11.030;2023-02-22T08:18:08;4.10;99.90
20398;DHT22;10358;49.590;11.030;2023-02-22T08:20:35;4.20;99.90
20398;DHT22;10358;49.590;11.030;2023-02-22T08:23:03;4.30;99.90
20398;DHT22;10358;49.590;11.030;2023-02-22T08:25:29;4.30;99.90
20398;DHT22;10358;49.590;11.030;2023-02-22T08:28:07;4.40;99.90
20398;DHT22;10358;49.590;11.030;2023-02-22T08:30:34;4.50;99.90
20398;DHT22;10358;49.590;11.030;2023-02-22T08:33:00;4.60;99.90
20398;DHT22;10358;49.590;11.030;2023-02-22T08:35:30;4.80;99.90
20398;DHT22;10358;49.590;11.030;2023-02-22T08:38:04;4.90;99.90
20398;DHT22;10358;49.590;11.030;2023-02-22T08:40:35;5.10;99.90
20398;DHT22;10358;49.590;11.030;2023-02-22T08:43:01;5.20;99.90
20398;DHT22;10358;49.590;11.030;2023-02-22T08:45:27;5.30;99.90
20398;DHT22;10358;49.590;11.030;2023-02-22T08:47:52;5.40;99.90
20398;DHT22;10358;49.590;11.030;2023-02-22T08:50:24;5.50;99.90
20398;DHT22;10358;49.590;11.030;2023-02-22T08:52:51;5.60;99.90
20398;DHT22;10358;49.590;11.030;2023-02-22T08:55:21;5.60;99.90
20398;DHT22;10358;49.590;11.030;2023-02-22T08:57:46;5.80;99.90
20398;DHT22;10358;49.590;11.030;2023-02-22T09:00:13;5.90;99.90
20398;DHT22;10358;49.590;11.030;2023-02-22T09:02:40;6.20;99.90
20398;DHT22;10358;49.590;11.030;2023-02-22T09:05:06;6.30;99.90
20398;DHT22;10358;49.590;11.030;2023-02-22T09:07:32;6.40;99.90
20398;DHT22;10358;49.590;11.030;2023-02-22T09:09:57;6.50;99.90
20398;DHT22;10358;49.590;11.030;2023-02-22T09:12:25;6.80;99.90
20398;DHT22;10358;49.590;11.030;2023-02-22T09:14:50;6.80;99.90
20398;DHT22;10358;49.590;11.030;2023-02-22T09:17:16;7.00;99.90
20398;DHT22;10358;49.590;11.030;2023-02-22T09:19:42;7.20;99.90
20398;DHT22;10358;49.590;11.030;2023-02-22T09:22:07;7.30;99.90
20398;DHT22;10358;49.590;11.030;2023-02-22T09:24:33;7.60;99.90
20398;DHT22;10358;49.590;11.030;2023-02-22T09:26:58;7.70;99.90
20398;DHT22;10358;49.590;11.030;2023-02-22T09:29:26;8.00;99.90
20398;DHT22;10358;49.590;11.030;2023-02-22T09:31:53;8.10;99.90
20398;DHT22;10358;49.590;11.030;2023-02-22T09:34:21;8.30;99.90
20398;DHT22;10358;49.590;11.030;2023-02-22T09:36:48;8.50;99.90
20398;DHT22;10358;49.590;11.030;2023-02-22T09:39:16;8.70;99.90
20398;DHT22;10358;49.590;11.030;2023-02-22T09:44:41;9.00;99.90
20398;DHT22;10358;49.590;11.030;2023-02-22T09:50:08;9.30;99.90
20398;DHT22;10358;49.590;11.030;2023-02-22T09:53:06;9.40;99.90
20398;DHT22;10358;49.590;11.030;2023-02-22T09:56:05;9.60;99.90
20398;DHT22;10358;49.590;11.030;2023-02-22T09:58:38;9.80;99.90
20398;DHT22;10358;49.590;11.030;2023-02-22T10:03:51;10.00;99.90
20398;DHT22;10358;49.590;11.030;2023-02-22T10:06:22;10.10;99.90
20398;DHT22;10358;49.590;11.030;2023-02-22T10:08:51;10.30;99.90
20398;DHT22;10358;49.590;11.030;2023-02-22T10:11:33;10.50;99.90
20398;DHT22;10358;49.590;11.030;2023-02-22T10:25:17;11.30;99.90
20398;DHT22;10358;49.590;11.030;2023-02-22T10:27:50;11.40;99.90
20398;DHT22;10358;49.590;11.030;2023-02-22T10:32:48;11.80;99.90
20398;DHT22;10358;49.590;11.030;2023-02-22T10:37:55;12.00;99.90
20398;DHT22;10358;49.590;11.030;2023-02-22T10:40:24;12.10;99.90
20398;DHT22;10358;49.590;11.030;2023-02-22T10:43:03;12.10;99.90
20398;DHT22;10358;49.590;11.030;2023-02-22T10:45:31;12.20;99.90
20398;DHT22;10358;49.590;11.030;2023-02-22T10:48:00;12.30;99.90
20398;DHT22;10358;49.590;11.030;2023-02-22T10:50:30;12.40;99.90
20398;DHT22;10358;49.590;11.030;2023-02-22T10:52:56;12.50;99.90
20398;DHT22;10358;49.590;11.030;2023-02-22T10:55:22;12.50;99.90
20398;DHT22;10358;49.590;11.030;2023-02-22T11:00:23;12.70;99.90
20398;DHT22;10358;49.590;11.030;2023-02-22T11:02:55;12.80;99.90
20398;DHT22;10358;49.590;11.030;2023-02-22T11:05:38;13.00;99.90
20398;DHT22;10358;49.590;11.030;2023-02-22T11:11:01;13.20;99.90
20398;DHT22;10358;49.590;11.030;2023-02-22T11:13:38;13.20;99.90
20398;DHT22;10358;49.590;11.030;2023-02-22T11:16:34;13.30;99.90
20398;DHT22;10358;49.590;11.030;2023-02-22T11:19:08;13.40;99.90
20398;DHT22;10358;49.590;11.030;2023-02-22T11:24:10;13.60;99.90
20398;DHT22;10358;49.590;11.030;2023-02-22T11:26:46;13.70;99.90
20398;DHT22;10358;49.590;11.030;2023-02-22T11:29:31;13.80;99.90
20398;DHT22;10358;49.590;11.030;2023-02-22T11:32:01;13.80;99.90
20398;DHT22;10358;49.590;11.030;2023-02-22T11:34:34;13.90;99.90
20398;DHT22;10358;49.590;11.030;2023-02-22T11:37:30;13.90;99.90
20398;DHT22;10358;49.590;11.030;2023-02-22T11:42:46;14.00;99.90
20398;DHT22;10358;49.590;11.030;2023-02-22T11:47:56;14.10;99.90
20398;DHT22;10358;49.590;11.030;2023-02-22T11:50:33;14.10;99.90
20398;DHT22;10358;49.590;11.030;2023-02-22T11:55:52;14.10;99.90
20398;DHT22;10358;49.590;11.030;2023-02-22T11:58:33;14.10;99.90
20398;DHT22;10358;49.590;11.030;2023-02-22T12:01:29;14.10;99.90
20398;DHT22;10358;49.590;11.030;2023-02-22T12:06:45;14.10;99.90
20398;DHT22;10358;49.590;11.030;2023-02-22T12:09:27;14.10;99.90
20398;DHT22;10358;49.590;11.030;2023-02-22T12:12:07;14.10;99.90
20398;DHT22;10358;49.590;11.030;2023-02-22T12:20:43;14.30;99.90
20398;DHT22;10358;49.590;11.030;2023-02-22T12:25:54;14.30;99.90
20398;DHT22;10358;49.590;11.030;2023-02-22T12:28:38;14.30;99.90
20398;DHT22;10358;49.590;11.030;2023-02-22T12:31:27;14.50;99.90
20398;DHT22;10358;49.590;11.030;2023-02-22T12:34:12;14.60;99.90
20398;DHT22;10358;49.590;11.030;2023-02-22T12:44:58;14.90;99.90
20398;DHT22;10358;49.590;11.030;2023-02-22T12:47:32;15.00;99.90
20398;DHT22;10358;49.590;11.030;2023-02-22T12:52:58;15.10;99.90
20398;DHT22;10358;49.590;11.030;2023-02-22T12:55:49;15.30;99.90
20398;DHT22;10358;49.590;11.030;2023-02-22T12:58:26;15.50;99.90
20398;DHT22;10358;49.590;11.030;2023-02-22T13:01:13;15.60;98.90
20398;DHT22;10358;49.590;11.030;2023-02-22T13:03:43;15.50;99.90
20398;DHT22;10358;49.590;11.030;2023-02-22T13:14:37;15.70;97.60
20398;DHT22;10358;49.590;11.030;2023-02-22T13:17:31;15.70;96.60
20398;DHT22;10358;49.590;11.030;2023-02-22T13:20:18;15.70;96.10
20398;DHT22;10358;49.590;11.030;2023-02-22T13:23:02;15.70;97.00
20398;DHT22;10358;49.590;11.030;2023-02-22T13:25:40;15.80;96.90
20398;DHT22;10358;49.590;11.030;2023-02-22T13:30:45;16.00;96.20
20398;DHT22;10358;49.590;11.030;2023-02-22T13:33:20;16.10;96.40
20398;DHT22;10358;49.590;11.030;2023-02-22T13:52:39;17.10;91.80
20398;DHT22;10358;49.590;11.030;2023-02-22T13:55:09;17.30;92.10
20398;DHT22;10358;49.590;11.030;2023-02-22T13:57:41;17.40;91.50
20398;DHT22;10358;49.590;11.030;2023-02-22T14:03:05;17.50;90.20
20398;DHT22;10358;49.590;11.030;2023-02-22T14:08:06;17.50;88.90
20398;DHT22;10358;49.590;11.030;2023-02-22T14:10:52;17.50;88.60
20398;DHT22;10358;49.590;11.030;2023-02-22T14:13:23;17.50;88.00
20398;DHT22;10358;49.590;11.030;2023-02-22T14:18:59;17.70;85.90
20398;DHT22;10358;49.590;11.030;2023-02-22T14:21:20;17.80;86.90
20398;DHT22;10358;49.590;11.030;2023-02-22T14:23:53;17.90;86.90
20398;DHT22;10358;49.590;11.030;2023-02-22T14:26:37;18.00;82.40
20398;DHT22;10358;49.590;11.030;2023-02-22T14:31:58;18.30;82.80
20398;DHT22;10358;49.590;11.030;2023-02-22T14:34:43;18.40;81.80
20398;DHT22;10358;49.590;11.030;2023-02-22T14:37:21;18.50;78.70
20398;DHT22;10358;49.590;11.030;2023-02-22T14:42:21;18.40;79.00
20398;DHT22;10358;49.590;11.030;2023-02-22T14:50:26;18.30;76.70
20398;DHT22;10358;49.590;11.030;2023-02-22T14:53:23;18.20;76.40
20398;DHT22;10358;49.590;11.030;2023-02-22T14:56:00;18.00;77.50
20398;DHT22;10358;49.590;11.030;2023-02-22T14:58:36;17.90;78.50
20398;DHT22;10358;49.590;11.030;2023-02-22T15:01:32;17.80;77.60
20398;DHT22;10358;49.590;11.030;2023-02-22T15:04:27;17.70;78.40
20398;DHT22;10358;49.590;11.030;2023-02-22T15:06:55;17.60;78.70
20398;DHT22;10358;49.590;11.030;2023-02-22T15:09:23;17.60;78.40
20398;DHT22;10358;49.590;11.030;2023-02-22T15:11:54;17.40;79.50
20398;DHT22;10358;49.590;11.030;2023-02-22T15:14:36;17.30;79.50
20398;DHT22;10358;49.590;11.030;2023-02-22T15:17:07;17.20;80.30
20398;DHT22;10358;49.590;11.030;2023-02-22T15:19:36;17.10;82.40
20398;DHT22;10358;49.590;11.030;2023-02-22T15:22:03;16.80;83.50
20398;DHT22;10358;49.590;11.030;2023-02-22T15:24:35;16.50;84.50
20398;DHT22;10358;49.590;11.030;2023-02-22T15:27:04;16.20;85.50
20398;DHT22;10358;49.590;11.030;2023-02-22T15:29:41;15.90;87.00
20398;DHT22;10358;49.590;11.030;2023-02-22T15:35:26;15.60;90.00
20398;DHT22;10358;49.590;11.030;2023-02-22T15:38:19;15.60;90.90
20398;DHT22;10358;49.590;11.030;2023-02-22T15:40:46;15.50;90.80
20398;DHT22;10358;49.590;11.030;2023-02-22T15:43:23;15.30;91.30
20398;DHT22;10358;49.590;11.030;2023-02-22T15:45:50;15.10;92.00
20398;DHT22;10358;49.590;11.030;2023-02-22T15:48:16;15.10;92.50
20398;DHT22;10358;49.590;11.030;2023-02-22T15:51:02;15.10;92.80
20398;DHT22;10358;49.590;11.030;2023-02-22T15:53:46;15.20;93.10
20398;DHT22;10358;49.590;11.030;2023-02-22T15:56:15;15.20;93.40
20398;DHT22;10358;49.590;11.030;2023-02-22T15:58:43;15.20;93.80
20398;DHT22;10358;49.590;11.030;2023-02-22T16:01:13;15.10;94.10
20398;DHT22;10358;49.590;11.030;2023-02-22T16:03:52;15.00;94.30
20398;DHT22;10358;49.590;11.030;2023-02-22T16:06:32;15.00;94.60
20398;DHT22;10358;49.590;11.030;2023-02-22T16:09:10;14.90;95.10
20398;DHT22;10358;49.590;11.030;2023-02-22T16:11:42;14.80;95.50
20398;DHT22;10358;49.590;11.030;2023-02-22T16:14:45;14.70;96.00
20398;DHT22;10358;49.590;11.030;2023-02-22T16:22:40;14.40;97.40
20398;DHT22;10358;49.590;11.030;2023-02-22T16:27:55;14.30;98.20
20398;DHT22;10358;49.590;11.030;2023-02-22T16:32:58;14.20;99.10
20398;DHT22;10358;49.590;11.030;2023-02-22T16:35:26;14.10;99.20
20398;DHT22;10358;49.590;11.030;2023-02-22T16:38:05;14.10;99.60
20398;DHT22;10358;49.590;11.030;2023-02-22T16:40:37;14.00;99.90
20398;DHT22;10358;49.590;11.030;2023-02-22T16:43:11;13.90;99.90
20398;DHT22;10358;49.590;11.030;2023-02-22T16:45:38;13.90;99.90
20398;DHT22;10358;49.590;11.030;2023-02-22T16:48:30;13.80;99.90
20398;DHT22;10358;49.590;11.030;2023-02-22T16:51:07;13.80;99.90
20398;DHT22;10358;49.590;11.030;2023-02-22T16:53:34;13.70;99.90
20398;DHT22;10358;49.590;11.030;2023-02-22T16:56:05;13.60;99.90
20398;DHT22;10358;49.590;11.030;2023-02-22T16:58:36;13.50;99.90
20398;DHT22;10358;49.590;11.030;2023-02-22T17:01:03;13.40;99.90
20398;DHT22;10358;49.590;11.030;2023-02-22T17:03:28;13.40;99.90
20398;DHT22;10358;49.590;11.030;2023-02-22T17:05:54;13.20;99.90
20398;DHT22;10358;49.590;11.030;2023-02-22T17:08:20;13.20;99.90
20398;DHT22;10358;49.590;11.030;2023-02-22T17:10:46;13.10;99.90
20398;DHT22;10358;49.590;11.030;2023-02-22T17:13:12;13.00;99.90
20398;DHT22;10358;49.590;11.030;2023-02-22T17:15:37;12.90;99.90
20398;DHT22;10358;49.590;11.030;2023-02-22T17:18:13;12.80;99.90
20398;DHT22;10358;49.590;11.030;2023-02-22T17:20:41;12.70;99.90
20398;DHT22;10358;49.590;11.030;2023-02-22T17:23:08;12.60;99.90
20398;DHT22;10358;49.590;11.030;2023-02-22T17:25:43;12.60;99.90
20398;DHT22;10358;49.590;11.030;2023-02-22T17:28:10;12.50;99.90
20398;DHT22;10358;49.590;11.030;2023-02-22T17:30:36;12.50;99.90
20398;DHT22;10358;49.590;11.030;2023-02-22T17:33:04;12.40;99.90
20398;DHT22;10358;49.590;11.030;2023-02-22T17:35:32;12.30;99.90
20398;DHT22;10358;49.590;11.030;2023-02-22T17:37:59;12.30;99.90
20398;DHT22;10358;49.590;11.030;2023-02-22T17:40:35;12.30;99.90
20398;DHT22;10358;49.590;11.030;2023-02-22T17:43:02;12.20;99.90
20398;DHT22;10358;49.590;11.030;2023-02-22T17:45:29;12.10;99.90
20398;DHT22;10358;49.590;11.030;2023-02-22T17:47:55;12.10;99.90
20398;DHT22;10358;49.590;11.030;2023-02-22T17:50:23;12.10;99.90
20398;DHT22;10358;49.590;11.030;2023-02-22T17:52:49;12.10;99.90
20398;DHT22;10358;49.590;11.030;2023-02-22T17:55:17;12.10;99.90
20398;DHT22;10358;49.590;11.030;2023-02-22T17:57:42;12.00;99.90
20398;DHT22;10358;49.590;11.030;2023-02-22T18:00:16;12.00;99.90
20398;DHT22;10358;49.590;11.030;2023-02-22T18:02:49;12.00;99.90
20398;DHT22;10358;49.590;11.030;2023-02-22T18:05:15;12.00;99.90
20398;DHT22;10358;49.590;11.030;2023-02-22T18:07:42;11.90;99.90
20398;DHT22;10358;49.590;11.030;2023-02-22T18:10:09;11.90;99.90
20398;DHT22;10358;49.590;11.030;2023-02-22T18:12:37;11.90;99.90
20398;DHT22;10358;49.590;11.030;2023-02-22T18:15:03;11.80;99.90